Time;durP1;ratioP1;P1;durP2;ratioP2;P2;SDS_P1;SDS_P2;PMS_P1;PMS_P2;Temp;Humidity;BMP_temperature;BMP_pressure;BME280_temperature;BME280_humidity;BME280_pressure;Samples;Min_cycle;Max_cycle;Signal;HPM_P1;HPM_P2
2023/07/08 00:00:50;;;;;;;1.00;0.90;;;;;;;28.53;35.86;101613.22;4985552;28;96822;-77
2023/07/08 00:03:18;;;;;;;0.80;0.70;;;;;;;28.54;35.99;101611.31;4993031;28;97410;-77
2023/07/08 00:05:47;;;;;;;1.10;1.00;;;;;;;28.54;35.82;101603.88;4984631;28;98156;-77
2023/07/08 00:08:19;;;;;;;0.95;0.88;;;;;;;28.55;35.94;101602.81;4975932;28;97055;-77
2023/07/08 00:10:46;;;;;;;1.27;1.13;;;;;;;28.54;35.82;101595.59;4962568;28;99237;-77
2023/07/08 00:13:12;;;;;;;1.40;1.00;;;;;;;28.54;35.68;101590.06;4986071;28;99084;-77
2023/07/08 00:15:40;;;;;;;0.68;0.68;;;;;;;28.54;35.54;101592.81;4973555;28;96788;-77
2023/07/08 00:18:16;;;;;;;1.25;0.90;;;;;;;28.56;35.71;101587.09;4966647;28;97006;-77
2023/07/08 00:20:47;;;;;;;1.13;0.90;;;;;;;28.54;35.75;101590.06;4980328;28;97931;-77
2023/07/08 00:23:15;;;;;;;1.25;1.10;;;;;;;28.53;35.71;101588.34;4985463;28;96714;-77
2023/07/08 00:25:42;;;;;;;1.00;0.90;;;;;;;28.53;35.70;101582.84;4972830;28;96711;-77
2023/07/08 00:28:15;;;;;;;1.58;1.27;;;;;;;28.55;35.81;101590.91;4973615;28;96957;-77
2023/07/08 00:30:42;;;;;;;1.45;0.80;;;;;;;28.54;35.81;101578.16;4968602;28;96970;-77
2023/07/08 00:33:09;;;;;;;1.00;0.90;;;;;;;28.54;35.82;101583.69;4980755;28;100756;-77
2023/07/08 00:35:41;;;;;;;0.80;0.75;;;;;;;28.55;35.74;101579.84;4973442;28;96828;-77
2023/07/08 00:38:17;;;;;;;1.30;0.98;;;;;;;28.55;35.72;101579.84;4979424;28;97004;-77
2023/07/08 00:40:52;;;;;;;0.88;0.80;;;;;;;28.54;35.75;101570.72;4971677;28;97654;-77
2023/07/08 00:43:23;;;;;;;1.10;1.00;;;;;;;28.54;35.85;101575.38;4972376;28;97956;-77
2023/07/08 00:46:00;;;;;;;1.13;0.90;;;;;;;28.54;35.80;101569.88;4958709;28;97078;-77
2023/07/08 00:48:34;;;;;;;1.20;0.90;;;;;;;28.54;35.81;101567.09;4974692;28;96798;-77
2023/07/08 00:51:01;;;;;;;1.40;0.90;;;;;;;28.53;35.63;101570.94;4974880;28;97168;-77
2023/07/08 00:53:32;;;;;;;1.00;0.88;;;;;;;28.53;35.80;101576.44;4974835;28;97918;-77
2023/07/08 00:56:03;;;;;;;2.17;1.00;;;;;;;28.53;35.85;101582.84;4974212;28;97507;-77
2023/07/08 00:58:41;;;;;;;1.27;1.08;;;;;;;28.54;35.85;101584.53;4957818;28;96926;-77
2023/07/08 01:01:08;;;;;;;1.05;0.77;;;;;;;28.54;35.79;101583.69;4977999;28;99037;-77
2023/07/08 01:03:45;;;;;;;0.98;0.88;;;;;;;28.54;35.72;101578.16;4983623;28;97670;-77
2023/07/08 01:06:12;;;;;;;1.48;1.08;;;;;;;28.54;35.77;101580.91;4975016;28;96870;-77
2023/07/08 01:08:39;;;;;;;0.93;0.77;;;;;;;28.54;35.87;101575.38;4975625;28;97215;-77
2023/07/08 01:11:06;;;;;;;1.10;1.00;;;;;;;28.53;35.80;101571.78;4959491;28;96949;-77
2023/07/08 01:13:40;;;;;;;1.00;0.80;;;;;;;28.54;35.65;101573.47;4974621;28;99849;-77
2023/07/08 01:16:08;;;;;;;0.80;0.80;;;;;;;28.53;35.85;101563.50;4982348;28;96742;-77
2023/07/08 01:18:35;;;;;;;1.05;0.90;;;;;;;28.54;35.75;101567.09;4994342;28;97178;-77
2023/07/08 01:21:29;;;;;;;1.35;0.90;;;;;;;28.54;35.69;101564.34;4975788;28;99269;-76
2023/07/08 01:23:57;;;;;;;1.23;1.05;;;;;;;28.53;35.98;101557.09;4980223;28;97107;-77
2023/07/08 01:26:25;;;;;;;1.15;0.90;;;;;;;28.53;35.72;101569.00;4993798;28;97341;-77
2023/07/08 01:28:54;;;;;;;0.90;0.80;;;;;;;28.52;35.53;101561.78;4992872;28;97303;-77
2023/07/08 01:31:22;;;;;;;1.20;0.95;;;;;;;28.54;35.88;101567.94;4990856;28;98088;-77
2023/07/08 01:33:51;;;;;;;1.02;0.90;;;;;;;28.54;35.97;101565.19;4992162;28;96610;-77
2023/07/08 01:36:18;;;;;;;1.10;1.00;;;;;;;28.53;35.69;101563.50;4991358;28;96687;-77
2023/07/08 01:38:46;;;;;;;1.23;1.00;;;;;;;28.53;35.75;101569.00;4990962;28;96704;-77
2023/07/08 01:41:15;;;;;;;1.30;1.00;;;;;;;28.54;35.70;101562.44;4992429;28;96657;-77
2023/07/08 01:43:43;;;;;;;1.33;1.00;;;;;;;28.54;35.72;101561.56;4984852;28;96658;-77
2023/07/08 01:46:19;;;;;;;1.88;0.98;;;;;;;28.54;35.81;101556.91;4956083;28;97521;-77
2023/07/08 01:48:51;;;;;;;1.10;0.80;;;;;;;28.54;35.77;101558.81;4974237;28;96746;-77
2023/07/08 01:51:20;;;;;;;0.98;0.85;;;;;;;28.53;35.83;101557.97;4971650;28;100388;-78
2023/07/08 01:53:46;;;;;;;1.00;0.90;;;;;;;28.54;35.63;101545.00;4971869;28;96761;-78
2023/07/08 01:56:14;;;;;;;1.15;1.05;;;;;;;28.54;35.68;101547.75;4970583;28;96807;-77
2023/07/08 01:58:41;;;;;;;1.27;0.90;;;;;;;28.53;35.70;101538.63;4955054;28;97028;-77
2023/07/08 02:01:09;;;;;;;1.27;1.02;;;;;;;28.53;35.65;101538.63;4985860;28;99678;-77
2023/07/08 02:03:36;;;;;;;1.10;1.00;;;;;;;28.53;35.76;101530.31;4955615;28;98634;-77
2023/07/08 02:06:03;;;;;;;0.98;0.80;;;;;;;28.54;35.70;101531.19;4973196;28;96803;-77
2023/07/08 02:08:30;;;;;;;1.15;1.05;;;;;;;28.54;35.79;101528.41;4955771;28;97068;-77
2023/07/08 02:10:58;;;;;;;1.42;1.10;;;;;;;28.54;35.66;101525.66;4972186;28;97379;-78
2023/07/08 02:13:25;;;;;;;1.02;0.88;;;;;;;28.53;35.68;101527.56;4971413;28;96666;-77
2023/07/08 02:15:52;;;;;;;1.00;0.85;;;;;;;28.53;35.60;101519.28;4979142;28;96693;-77
2023/07/08 02:18:19;;;;;;;1.60;1.13;;;;;;;28.54;35.66;101520.97;4960531;28;96715;-77
2023/07/08 02:20:46;;;;;;;0.80;0.77;;;;;;;28.54;35.71;101529.25;4971198;28;97578;-77
2023/07/08 02:23:14;;;;;;;1.08;0.98;;;;;;;28.53;35.66;101527.56;4971575;28;96797;-77
2023/07/08 02:25:41;;;;;;;1.48;0.95;;;;;;;28.54;35.58;101531.19;4954123;28;96763;-77
2023/07/08 02:28:07;;;;;;;1.38;1.02;;;;;;;28.54;35.64;101536.69;4969618;28;96847;-77
2023/07/08 02:30:34;;;;;;;1.30;1.15;;;;;;;28.53;35.60;101513.75;4970365;28;99584;-78
2023/07/08 02:33:01;;;;;;;1.08;0.98;;;;;;;28.53;35.95;101524.78;5000257;28;98414;-77
2023/07/08 02:35:30;;;;;;;1.05;0.93;;;;;;;28.53;35.69;101527.56;4987330;28;96909;-77
2023/07/08 02:37:57;;;;;;;1.27;0.90;;;;;;;28.54;35.72;101514.59;4972073;28;97139;-77
2023/07/08 02:40:25;;;;;;;0.95;0.85;;;;;;;28.53;35.76;101508.22;4971888;28;99076;-77
2023/07/08 02:42:53;;;;;;;1.80;1.08;;;;;;;28.53;35.78;101510.13;4984027;28;97419;-77
2023/07/08 02:45:19;;;;;;;1.00;0.90;;;;;;;28.52;35.66;101503.75;4986721;28;98772;-77
2023/07/08 02:47:46;;;;;;;1.90;0.90;;;;;;;28.54;35.53;101511.84;4967444;28;96908;-77
2023/07/08 02:50:13;;;;;;;1.10;0.93;;;;;;;28.53;35.82;101510.97;4970944;28;99084;-77
2023/07/08 02:52:40;;;;;;;1.30;1.00;;;;;;;28.53;35.71;101510.13;4971091;28;98279;-77
2023/07/08 02:55:07;;;;;;;1.17;0.98;;;;;;;28.53;35.49;101510.97;4987500;28;96750;-77
2023/07/08 02:57:33;;;;;;;1.20;1.00;;;;;;;28.53;35.76;101504.59;4985553;28;97443;-78
2023/07/08 03:00:00;;;;;;;0.90;0.80;;;;;;;28.53;35.12;101504.59;4987668;28;98589;-77
2023/07/08 03:02:27;;;;;;;1.25;1.00;;;;;;;28.52;35.59;101509.28;4970327;28;97319;-77
2023/07/08 03:04:54;;;;;;;1.23;1.02;;;;;;;28.53;35.40;101515.66;4988662;28;96697;-77
2023/07/08 03:07:20;;;;;;;1.00;0.90;;;;;;;28.52;35.98;101513.97;4969600;28;96891;-77
2023/07/08 03:09:47;;;;;;;1.17;0.90;;;;;;;28.52;35.55;101500.13;4990745;28;96872;-77
2023/07/08 03:12:14;;;;;;;1.23;1.10;;;;;;;28.52;35.69;101508.44;4958841;28;96747;-77
2023/07/08 03:14:40;;;;;;;1.35;1.15;;;;;;;28.52;35.63;101509.28;4990919;28;97165;-76
2023/07/08 03:17:07;;;;;;;1.00;0.80;;;;;;;28.52;35.61;101508.44;4971278;28;96631;-77
2023/07/08 03:19:34;;;;;;;1.00;0.85;;;;;;;28.52;35.61;101508.44;4972996;28;99586;-77
2023/07/08 03:22:04;;;;;;;1.15;1.00;;;;;;;28.52;35.82;101517.56;4973507;28;97658;-77
2023/07/08 03:24:31;;;;;;;1.27;1.10;;;;;;;28.52;35.64;101516.72;4989117;28;96787;-77
2023/07/08 03:27:04;;;;;;;1.17;0.90;;;;;;;28.53;35.70;101515.66;4979158;28;96804;-77
2023/07/08 03:29:34;;;;;;;1.08;0.98;;;;;;;28.52;35.69;101519.47;4973552;28;98541;-77
2023/07/08 03:32:00;;;;;;;1.38;0.90;;;;;;;28.52;35.71;101522.25;4990175;28;96698;-77
2023/07/08 03:34:27;;;;;;;1.23;0.90;;;;;;;28.51;35.65;101521.41;4989207;28;97504;-77
2023/07/08 03:36:54;;;;;;;1.20;0.82;;;;;;;28.51;35.67;101523.31;4989657;28;96432;-77
2023/07/08 03:39:23;;;;;;;1.52;0.90;;;;;;;28.51;35.71;101518.63;4990937;28;96668;-77
2023/07/08 03:41:51;;;;;;;1.27;1.17;;;;;;;28.51;35.66;101515.00;4993579;28;98357;-78
2023/07/08 03:44:19;;;;;;;1.38;1.13;;;;;;;28.51;35.65;101520.53;4994502;28;97242;-77
2023/07/08 03:46:49;;;;;;;0.95;0.80;;;;;;;28.51;35.53;101518.63;4959747;28;97297;-77
2023/07/08 03:49:21;;;;;;;1.10;0.90;;;;;;;28.50;35.84;101511.41;4976664;28;97002;-77
2023/07/08 03:51:50;;;;;;;1.00;0.90;;;;;;;28.50;35.78;101513.31;4971231;28;97553;-77
2023/07/08 03:54:18;;;;;;;1.08;0.88;;;;;;;28.51;35.48;101520.53;4976144;28;96647;-77
2023/07/08 03:56:46;;;;;;;1.25;0.90;;;;;;;28.50;35.60;101524.38;4980434;28;96966;-77
2023/07/08 03:59:13;;;;;;;1.30;1.00;;;;;;;28.51;35.56;101524.16;4971278;28;98737;-77
2023/07/08 04:01:40;;;;;;;1.30;1.00;;;;;;;28.50;35.64;101522.47;4987236;28;96727;-77
2023/07/08 04:04:12;;;;;;;1.70;1.20;;;;;;;28.52;35.59;101525.00;4976464;28;96872;-77
2023/07/08 04:06:39;;;;;;;1.90;1.00;;;;;;;28.50;35.67;101521.59;4984564;28;96701;-77
2023/07/08 04:09:06;;;;;;;1.30;1.10;;;;;;;28.50;35.64;101521.59;4974073;28;96878;-77
2023/07/08 04:11:33;;;;;;;1.00;0.85;;;;;;;28.50;35.65;101527.97;4975374;28;97481;-77
2023/07/08 04:14:00;;;;;;;0.82;0.80;;;;;;;28.49;35.65;101523.53;4973662;28;96741;-77
2023/07/08 04:16:42;;;;;;;1.00;0.90;;;;;;;28.51;35.66;101520.53;4975775;28;96724;-77
2023/07/08 04:19:14;;;;;;;1.05;0.90;;;;;;;28.50;35.43;101524.38;4981936;28;96917;-77
2023/07/08 04:21:42;;;;;;;0.90;0.80;;;;;;;28.50;35.55;101518.84;4995706;28;97312;-77
2023/07/08 04:24:11;;;;;;;1.10;0.93;;;;;;;28.48;35.59;101519.91;4992841;28;96846;-77
2023/07/08 04:26:39;;;;;;;1.10;1.00;;;;;;;28.48;35.79;101519.06;4978797;28;98451;-77
2023/07/08 04:29:14;;;;;;;1.10;0.98;;;;;;;28.50;35.69;101519.69;4983262;28;99627;-77
2023/07/08 04:31:41;;;;;;;1.15;1.00;;;;;;;28.49;35.67;101523.53;4971580;28;97426;-77
2023/07/08 04:34:09;;;;;;;1.10;1.00;;;;;;;28.49;35.62;101523.53;4973424;28;96811;-77
2023/07/08 04:36:36;;;;;;;1.23;1.10;;;;;;;28.48;35.60;101528.19;4973360;28;97234;-77
2023/07/08 04:39:04;;;;;;;1.02;0.85;;;;;;;28.50;35.82;101538.19;4975315;28;97777;-77
2023/07/08 04:41:31;;;;;;;1.63;0.75;;;;;;;28.49;35.84;101534.56;4974366;28;96685;-77
2023/07/08 04:44:02;;;;;;;0.93;0.82;;;;;;;28.48;35.47;101530.97;4973371;28;96672;-77
2023/07/08 04:46:34;;;;;;;1.00;0.90;;;;;;;28.50;35.66;101532.66;4972904;28;96797;-77
2023/07/08 04:49:02;;;;;;;1.05;0.95;;;;;;;28.50;35.60;101538.19;4993658;28;96944;-77
2023/07/08 04:51:29;;;;;;;0.65;0.65;;;;;;;28.48;35.44;101530.97;4993632;28;97584;-77
2023/07/08 04:53:56;;;;;;;1.10;1.00;;;;;;;28.49;35.56;101531.81;4976024;28;96746;-77
2023/07/08 04:56:26;;;;;;;1.10;0.90;;;;;;;28.51;35.70;101528.84;4972787;28;97081;-78
2023/07/08 04:58:52;;;;;;;1.10;0.95;;;;;;;28.50;35.65;101532.66;4991842;28;96988;-77
2023/07/08 05:01:19;;;;;;;1.52;1.08;;;;;;;28.49;35.38;101520.75;4993212;28;96768;-76
2023/07/08 05:03:45;;;;;;;2.13;1.00;;;;;;;28.50;35.53;101518.84;4975347;28;97208;-78
2023/07/08 05:06:12;;;;;;;1.55;0.95;;;;;;;28.48;35.61;101514.38;4975428;28;96699;-77
2023/07/08 05:08:39;;;;;;;1.55;1.20;;;;;;;28.50;35.66;101519.69;4992184;28;100342;-78
2023/07/08 05:11:05;;;;;;;1.08;0.90;;;;;;;28.50;35.55;101521.59;4994898;28;96759;-77
2023/07/08 05:13:32;;;;;;;1.45;1.10;;;;;;;28.49;35.48;101523.53;4992136;28;96768;-77
2023/07/08 05:15:58;;;;;;;1.00;0.82;;;;;;;28.49;35.68;101523.53;4982240;28;96937;-78
2023/07/08 05:18:25;;;;;;;0.93;0.82;;;;;;;28.50;35.37;101518.84;4992199;28;96976;-77
2023/07/08 05:20:54;;;;;;;1.50;1.15;;;;;;;28.50;35.83;101521.59;4993227;28;96628;-77
2023/07/08 05:23:21;;;;;;;1.20;1.10;;;;;;;28.49;35.59;101509.69;4991043;28;96815;-77
2023/07/08 05:25:48;;;;;;;1.42;1.00;;;;;;;28.50;35.71;101510.56;4992148;28;96732;-77
2023/07/08 05:28:15;;;;;;;1.10;0.98;;;;;;;28.48;35.59;101514.38;4991010;28;97858;-77
2023/07/08 05:30:42;;;;;;;1.02;0.80;;;;;;;28.51;35.64;101526.06;4995656;28;96693;-77
2023/07/08 05:33:09;;;;;;;0.98;0.93;;;;;;;28.50;35.64;101527.13;4993676;28;97518;-77
2023/07/08 05:35:35;;;;;;;1.20;0.93;;;;;;;28.50;35.37;101527.97;4978706;28;97228;-77
2023/07/08 05:38:02;;;;;;;1.17;0.90;;;;;;;28.50;35.79;101516.06;4973163;28;97277;-77
2023/07/08 05:40:29;;;;;;;0.80;0.80;;;;;;;28.51;35.36;101531.59;4994176;28;97223;-78
2023/07/08 05:42:55;;;;;;;1.30;1.10;;;;;;;28.51;35.24;101531.59;4993236;28;96785;-77
2023/07/08 05:45:22;;;;;;;1.20;0.90;;;;;;;28.50;35.46;101522.47;4993649;28;97246;-77
2023/07/08 05:47:48;;;;;;;1.00;0.90;;;;;;;28.51;35.61;101515.88;4976992;28;98150;-77
2023/07/08 05:50:15;;;;;;;0.93;0.85;;;;;;;28.51;35.58;101521.41;4987542;28;96730;-77
2023/07/08 05:52:42;;;;;;;2.03;1.17;;;;;;;28.51;35.70;101502.06;4986612;28;96753;-77
2023/07/08 05:55:08;;;;;;;1.10;1.00;;;;;;;28.52;35.49;101511.19;4973936;28;97206;-77
2023/07/08 05:57:35;;;;;;;1.38;1.10;;;;;;;28.51;35.59;101523.31;4989365;28;97284;-77
2023/07/08 06:00:03;;;;;;;1.00;0.88;;;;;;;28.52;35.77;101530.53;4972893;28;97386;-77
2023/07/08 06:02:37;;;;;;;1.15;0.88;;;;;;;28.51;35.49;101515.00;4971143;28;96864;-77
2023/07/08 06:05:04;;;;;;;0.98;0.88;;;;;;;28.52;35.55;101519.47;4957324;28;96655;-77
2023/07/08 06:07:32;;;;;;;1.00;0.90;;;;;;;28.52;35.64;101525.00;4973003;28;98899;-77
2023/07/08 06:09:59;;;;;;;1.17;0.95;;;;;;;28.53;35.58;101529.47;4975014;28;97912;-77
2023/07/08 06:12:26;;;;;;;1.50;1.00;;;;;;;28.52;35.42;101530.53;4989946;28;96783;-77
2023/07/08 06:14:52;;;;;;;1.10;1.00;;;;;;;28.52;35.63;101525.00;4975766;28;96848;-77
2023/07/08 06:17:19;;;;;;;1.05;0.85;;;;;;;28.53;35.59;101526.72;4992435;28;97151;-77
2023/07/08 06:19:45;;;;;;;1.00;0.90;;;;;;;28.52;35.93;101525.84;4994511;28;98153;-77
2023/07/08 06:22:12;;;;;;;1.10;1.00;;;;;;;28.53;35.58;101529.47;4979204;28;96914;-77
2023/07/08 06:24:58;;;;;;;0.95;0.68;;;;;;;28.52;35.60;101523.09;4975071;28;96971;-77
2023/07/08 06:27:25;;;;;;;1.00;0.90;;;;;;;28.53;35.45;101533.09;4991063;28;96708;-77
2023/07/08 06:29:53;;;;;;;0.75;0.70;;;;;;;28.53;35.57;101526.72;4992894;28;97270;-77
2023/07/08 06:32:19;;;;;;;0.98;0.80;;;;;;;28.53;35.57;101532.25;4993504;28;97197;-77
2023/07/08 06:34:46;;;;;;;1.30;1.00;;;;;;;28.54;35.70;101539.47;4991661;28;96894;-77
2023/07/08 06:37:12;;;;;;;1.15;0.90;;;;;;;28.53;35.65;101533.09;4991295;28;99168;-77
2023/07/08 06:39:39;;;;;;;1.40;0.90;;;;;;;28.53;35.60;101538.63;4974675;28;96870;-77
2023/07/08 06:42:08;;;;;;;0.90;0.80;;;;;;;28.54;35.54;101533.94;4972111;28;97214;-77
2023/07/08 06:44:39;;;;;;;0.90;0.80;;;;;;;28.54;35.60;101536.69;5001480;28;97234;-77
2023/07/08 06:47:06;;;;;;;0.85;0.80;;;;;;;28.54;35.72;101540.31;4974545;28;99302;-77
2023/07/08 06:49:32;;;;;;;1.05;0.93;;;;;;;28.54;35.55;101542.22;4989923;28;97326;-77
2023/07/08 06:52:00;;;;;;;0.82;0.77;;;;;;;28.55;35.56;101535.63;4974424;28;96668;-77
2023/07/08 06:54:27;;;;;;;1.10;1.00;;;;;;;28.55;35.80;101533.72;4990215;28;97333;-77
2023/07/08 06:56:54;;;;;;;1.52;0.90;;;;;;;28.55;35.58;101530.13;4971573;28;97906;-77
2023/07/08 06:59:21;;;;;;;0.93;0.82;;;;;;;28.56;35.51;101523.53;4970733;28;96831;-77
2023/07/08 07:01:47;;;;;;;0.80;0.77;;;;;;;28.56;35.74;101520.75;4964594;28;96761;-77
2023/07/08 07:04:14;;;;;;;0.77;0.77;;;;;;;28.56;35.73;101520.75;4974094;28;96645;-77
2023/07/08 07:06:40;;;;;;;1.13;0.75;;;;;;;28.55;35.64;101517.16;4981179;28;97445;-77
2023/07/08 07:09:08;;;;;;;1.17;0.90;;;;;;;28.56;35.59;101518.00;4975816;28;97317;-77
2023/07/08 07:11:35;;;;;;;0.90;0.80;;;;;;;28.56;35.61;101518.00;4991311;28;96933;-77
2023/07/08 07:14:02;;;;;;;1.00;0.85;;;;;;;28.57;35.31;101528.00;4975718;28;96867;-77
2023/07/08 07:16:29;;;;;;;0.95;0.80;;;;;;;28.57;35.68;101526.06;4988934;28;97694;-77
2023/07/08 07:18:56;;;;;;;0.77;0.68;;;;;;;28.57;35.74;101531.59;4970850;28;96883;-77
2023/07/08 07:21:22;;;;;;;1.13;0.90;;;;;;;28.57;35.87;101520.56;4964509;28;96763;-75
2023/07/08 07:23:49;;;;;;;1.00;0.90;;;;;;;28.58;35.81;101526.94;4969163;28;96902;-77
2023/07/08 07:26:15;;;;;;;1.08;0.80;;;;;;;28.58;35.36;101521.41;4969901;28;97262;-76
2023/07/08 07:28:42;;;;;;;1.58;1.00;;;;;;;28.58;35.67;101521.41;4969388;28;96730;-77
2023/07/08 07:31:10;;;;;;;1.00;0.80;;;;;;;28.59;35.69;101517.56;4970127;28;96681;-76
2023/07/08 07:33:37;;;;;;;1.30;1.00;;;;;;;28.59;35.78;101512.91;4969685;28;97218;-77
2023/07/08 07:36:04;;;;;;;1.10;0.90;;;;;;;28.59;35.72;101515.66;4969119;28;99430;-77
2023/07/08 07:38:33;;;;;;;1.50;0.90;;;;;;;28.60;35.55;101510.97;4969029;28;97094;-76
2023/07/08 07:41:04;;;;;;;1.08;0.98;;;;;;;28.59;36.00;101514.81;4970526;28;96798;-77
2023/07/08 07:43:31;;;;;;;0.80;0.70;;;;;;;28.59;35.80;101517.56;4971877;28;96944;-76
2023/07/08 07:45:57;;;;;;;1.10;0.90;;;;;;;28.60;35.91;101511.84;4990420;28;97604;-77
2023/07/08 07:48:24;;;;;;;1.88;0.90;;;;;;;28.61;35.74;101523.75;4987756;28;98041;-76
2023/07/08 07:50:51;;;;;;;1.55;1.00;;;;;;;28.61;35.74;101518.22;4989879;28;96752;-76
2023/07/08 07:53:19;;;;;;;0.80;0.80;;;;;;;28.63;35.71;101521.63;4973206;28;96880;-77
2023/07/08 07:55:46;;;;;;;1.05;0.90;;;;;;;28.63;35.87;101518.84;4984153;28;97152;-77
2023/07/08 07:58:13;;;;;;;1.33;0.80;;;;;;;28.63;35.73;101514.19;4983838;28;99845;-78
2023/07/08 08:00:39;;;;;;;0.90;0.70;;;;;;;28.62;35.82;101518.00;4985325;28;96854;-78
2023/07/08 08:03:06;;;;;;;0.95;0.80;;;;;;;28.63;35.76;101516.94;4985924;28;96992;-78
2023/07/08 08:05:33;;;;;;;1.13;0.90;;;;;;;28.64;35.99;101520.56;4984005;28;98214;-78
2023/07/08 08:07:59;;;;;;;1.77;0.90;;;;;;;28.64;36.07;101517.78;4977862;28;98794;-78
2023/07/08 08:10:26;;;;;;;1.15;1.05;;;;;;;28.63;35.99;101519.69;4982048;28;96663;-78
2023/07/08 08:12:53;;;;;;;1.10;1.00;;;;;;;28.64;35.85;101515.88;4980421;28;96639;-78
2023/07/08 08:15:21;;;;;;;1.15;1.00;;;;;;;28.65;36.05;101520.34;4981556;28;97880;-77
2023/07/08 08:17:51;;;;;;;1.02;0.80;;;;;;;28.65;35.93;101525.03;4989022;28;97841;-78
2023/07/08 08:20:20;;;;;;;1.23;1.00;;;;;;;28.65;35.79;101530.56;4995980;28;96717;-78
2023/07/08 08:22:47;;;;;;;1.10;0.82;;;;;;;28.65;36.02;101525.88;4998315;28;96875;-77
2023/07/08 08:25:15;;;;;;;1.77;0.98;;;;;;;28.66;35.95;101523.97;4975849;28;96841;-76
2023/07/08 08:27:42;;;;;;;1.00;0.88;;;;;;;28.65;35.99;101522.25;4995067;28;97204;-77
2023/07/08 08:30:09;;;;;;;1.20;1.00;;;;;;;28.66;35.99;101526.72;4973513;28;96621;-77
2023/07/08 08:32:35;;;;;;;1.38;1.00;;;;;;;28.67;35.93;101531.19;4986385;28;96844;-77
2023/07/08 08:35:02;;;;;;;1.00;0.88;;;;;;;28.68;35.77;101538.41;4992566;28;98650;-78
2023/07/08 08:37:29;;;;;;;1.10;1.00;;;;;;;28.66;35.92;101530.34;4994121;28;96691;-77
2023/07/08 08:39:56;;;;;;;1.23;1.10;;;;;;;28.68;36.00;101543.94;4992618;28;96690;-77
2023/07/08 08:42:30;;;;;;;1.52;1.27;;;;;;;28.69;36.37;101543.72;4993598;28;97110;-77
2023/07/08 08:45:00;;;;;;;1.00;0.90;;;;;;;28.68;35.88;101541.19;4977296;28;97870;-77
2023/07/08 08:47:38;;;;;;;1.02;0.93;;;;;;;28.69;35.98;101543.72;4979318;28;98290;-77
2023/07/08 08:50:29;;;;;;;1.00;0.90;;;;;;;28.69;35.93;101538.22;4983773;28;96053;-77
2023/07/08 08:52:59;;;;;;;1.33;0.98;;;;;;;28.67;36.11;101539.47;4978799;28;97509;-77
2023/07/08 08:55:25;;;;;;;1.33;0.93;;;;;;;28.69;35.94;101545.66;4982925;28;97581;-77
2023/07/08 08:58:17;;;;;;;0.80;0.80;;;;;;;28.70;35.92;101539.06;4990183;28;98964;-77
2023/07/08 09:00:54;;;;;;;1.17;0.80;;;;;;;28.69;35.87;101545.66;4991778;28;97357;-77
2023/07/08 09:03:41;;;;;;;0.82;0.80;;;;;;;28.69;36.05;101542.88;4972178;28;97087;-77
2023/07/08 09:06:24;;;;;;;1.23;0.98;;;;;;;28.67;36.09;101540.34;4990075;28;96911;-77
2023/07/08 09:08:52;;;;;;;1.10;0.95;;;;;;;28.68;35.86;101539.28;4988694;28;96701;-77
2023/07/08 09:11:27;;;;;;;1.27;1.00;;;;;;;28.70;35.93;101539.06;4972463;28;96678;-77
2023/07/08 09:13:54;;;;;;;1.63;1.23;;;;;;;28.68;35.87;101528.22;4985598;28;97105;-77
2023/07/08 09:17:14;;;;;;;1.08;0.98;;;;;;;28.70;36.10;101539.06;4985721;28;96858;-77
2023/07/08 09:19:45;;;;;;;1.40;0.98;;;;;;;28.68;36.20;101536.50;4913177;28;97958;-77
2023/07/08 09:22:20;;;;;;;1.30;1.20;;;;;;;28.70;36.11;101533.53;4968700;28;96868;-77
2023/07/08 09:24:53;;;;;;;1.10;0.80;;;;;;;28.70;36.03;101531.63;4982718;28;96908;-77
2023/07/08 09:27:20;;;;;;;1.40;0.90;;;;;;;28.71;35.90;101540.75;4988869;28;96804;-77
2023/07/08 09:29:47;;;;;;;1.00;0.90;;;;;;;28.71;36.05;101541.63;4973296;28;96882;-77
2023/07/08 09:32:20;;;;;;;2.15;1.40;;;;;;;28.72;35.98;101546.06;4971219;28;98138;-77
2023/07/08 09:34:50;;;;;;;1.85;1.25;;;;;;;28.71;36.14;101538.84;4970257;28;97001;-76
2023/07/08 09:37:22;;;;;;;0.95;0.80;;;;;;;28.73;36.09;101541.41;4953286;28;97821;-77
2023/07/08 09:39:49;;;;;;;1.02;0.80;;;;;;;28.73;35.98;101530.34;4971557;28;96911;-77
2023/07/08 09:42:16;;;;;;;1.17;0.93;;;;;;;28.73;35.85;101544.16;4970303;28;96685;-76
2023/07/08 09:44:45;;;;;;;1.48;1.02;;;;;;;28.73;35.96;101539.47;4959910;28;96963;-77
2023/07/08 09:47:30;;;;;;;1.60;1.25;;;;;;;28.76;36.06;101540.97;4989869;28;97710;-77
2023/07/08 09:49:57;;;;;;;0.85;0.82;;;;;;;28.74;36.10;101543.09;4976249;28;98781;-77
2023/07/08 09:52:24;;;;;;;1.30;1.15;;;;;;;28.74;36.20;101540.34;4989767;28;96796;-77
2023/07/08 09:54:51;;;;;;;1.75;1.02;;;;;;;28.75;36.09;101536.50;4972613;28;97127;-77
2023/07/08 09:57:28;;;;;;;1.30;1.05;;;;;;;28.75;36.08;101534.59;4990960;28;97717;-77
2023/07/08 10:00:02;;;;;;;1.35;1.10;;;;;;;28.76;36.20;101529.91;4976958;28;97097;-77
2023/07/08 10:02:32;;;;;;;1.20;1.00;;;;;;;28.74;35.92;101530.13;4988277;28;97733;-77
2023/07/08 10:05:14;;;;;;;1.02;0.93;;;;;;;28.77;36.08;101534.38;4991264;28;97116;-77
2023/07/08 10:07:41;;;;;;;1.17;0.98;;;;;;;28.76;35.94;101538.22;4988877;28;96963;-77
2023/07/08 10:10:14;;;;;;;1.20;1.10;;;;;;;28.76;35.94;101535.44;4969697;28;96794;-77
2023/07/08 10:12:47;;;;;;;1.40;1.10;;;;;;;28.75;36.00;101526.31;4990228;28;96788;-77
2023/07/08 10:15:24;;;;;;;1.38;1.13;;;;;;;28.76;36.18;101536.28;4978896;28;96734;-77
2023/07/08 10:17:51;;;;;;;1.20;1.08;;;;;;;28.78;35.88;101527.78;4991767;28;96890;-76
2023/07/08 10:20:18;;;;;;;1.35;1.10;;;;;;;28.77;35.94;101529.69;4990686;28;96868;-77
2023/07/08 10:23:15;;;;;;;1.58;1.30;;;;;;;28.78;36.07;101517.59;4974734;28;96658;-77
2023/07/08 10:26:03;;;;;;;1.45;1.05;;;;;;;28.79;36.00;101515.66;4980157;28;97060;-76
2023/07/08 10:28:58;;;;;;;1.33;1.13;;;;;;;28.79;36.01;101519.28;4987932;28;97643;-77
2023/07/08 10:31:32;;;;;;;3.95;1.25;;;;;;;28.78;36.11;101525.03;4972657;28;98423;-76
2023/07/08 10:34:37;;;;;;;1.27;0.93;;;;;;;28.77;36.14;101518.66;4956304;28;97454;-76
2023/07/08 10:37:29;;;;;;;1.10;1.00;;;;;;;28.77;36.40;101517.78;4973377;28;97156;-77
2023/07/08 10:40:34;;;;;;;1.35;1.15;;;;;;;28.77;36.09;101517.78;4990931;28;98317;-77
2023/07/08 10:43:19;;;;;;;1.33;1.23;;;;;;;28.76;36.14;101519.72;4932435;28;97916;-76
2023/07/08 10:45:53;;;;;;;1.23;1.00;;;;;;;28.76;35.92;101514.19;4989765;28;97175;-77
2023/07/08 10:48:30;;;;;;;1.40;1.08;;;;;;;28.77;36.50;101524.19;4974619;28;97225;-77
2023/07/08 10:51:03;;;;;;;1.33;0.90;;;;;;;28.77;35.79;101520.56;4993388;28;97187;-77
2023/07/08 10:53:46;;;;;;;1.50;1.20;;;;;;;28.78;36.17;101520.34;4982671;28;96631;-77
2023/07/08 10:56:20;;;;;;;1.33;1.10;;;;;;;28.78;36.05;101520.34;4976197;28;96992;-77
2023/07/08 10:59:12;;;;;;;1.63;1.20;;;;;;;28.80;36.35;101520.13;4987563;28;96420;-77
2023/07/08 11:01:39;;;;;;;1.98;1.30;;;;;;;28.78;36.13;101514.81;4984768;28;96882;-77
2023/07/08 11:04:43;;;;;;;1.20;1.10;;;;;;;28.81;36.23;101519.06;4987727;28;98190;-77
2023/07/08 11:07:34;;;;;;;1.40;1.27;;;;;;;28.79;36.06;101516.53;4939999;28;97588;-77
2023/07/08 11:10:34;;;;;;;1.70;1.17;;;;;;;28.80;36.08;101525.66;4993567;28;96579;-77
2023/07/08 11:13:10;;;;;;;1.20;1.10;;;;;;;28.80;36.21;101525.66;4949108;28;96959;-77
2023/07/08 11:15:56;;;;;;;1.73;1.20;;;;;;;28.80;36.08;101518.22;4982325;28;96867;-77
2023/07/08 11:18:52;;;;;;;1.40;1.20;;;;;;;28.82;36.15;101519.91;4993905;28;96791;-77
2023/07/08 11:21:26;;;;;;;1.20;1.10;;;;;;;28.80;36.10;101511.84;4964999;28;96817;-77
2023/07/08 11:24:06;;;;;;;1.77;1.27;;;;;;;28.81;36.21;101519.06;4974296;28;98700;-77
2023/07/08 11:26:41;;;;;;;1.20;1.10;;;;;;;28.81;36.25;101516.31;4977246;28;96643;-77
2023/07/08 11:29:18;;;;;;;1.60;1.42;;;;;;;28.82;36.33;101525.44;4976550;28;96886;-77
2023/07/08 11:31:46;;;;;;;2.00;1.20;;;;;;;28.82;36.05;101519.91;5011570;28;97421;-79
2023/07/08 11:34:16;;;;;;;2.28;1.45;;;;;;;28.83;36.08;101516.94;4983639;28;96872;-77
2023/07/08 11:36:44;;;;;;;1.55;1.20;;;;;;;28.83;36.16;101511.41;4984417;28;96756;-77
2023/07/08 11:39:38;;;;;;;1.27;1.10;;;;;;;28.85;36.19;101512.09;4983269;28;96708;-77